Time;durP1;ratioP1;P1;durP2;ratioP2;P2;SDS_P1;SDS_P2;PMS_P1;PMS_P2;Temp;Humidity;BMP_temperature;BMP_pressure;BME280_temperature;BME280_humidity;BME280_pressure;Samples;Min_cycle;Max_cycle;Signal;HPM_P1;HPM_P2
2022/06/08 00:01:09;;;;;;;;;;;;;;;22.86;47.71;100591.44;4958371;28;5479;-58
2022/06/08 00:03:40;;;;;;;;;;;;;;;22.86;47.80;100596.47;4959038;28;4321;-59
2022/06/08 00:06:06;;;;;;;;;;;;;;;22.86;47.72;100584.91;4963904;28;5462;-58
2022/06/08 00:08:33;;;;;;;;;;;;;;;22.85;47.93;100589.97;4955916;28;4289;-59
2022/06/08 00:10:59;;;;;;;;;;;;;;;22.85;47.86;100586.34;4952279;28;4804;-59
2022/06/08 00:13:25;;;;;;;;;;;;;;;22.85;48.07;100589.22;4961390;28;4253;-58
2022/06/08 00:15:53;;;;;;;;;;;;;;;22.84;48.13;100579.06;4963871;28;4743;-59
2022/06/08 00:18:20;;;;;;;;;;;;;;;22.84;48.15;100587.75;4962419;28;4020;-59
2022/06/08 00:20:46;;;;;;;;;;;;;;;22.84;47.93;100582.72;4959714;28;5277;-59
2022/06/08 00:23:13;;;;;;;;;;;;;;;22.84;47.94;100587.75;4961416;28;4107;-59
2022/06/08 00:25:39;;;;;;;;;;;;;;;22.83;48.03;100592.78;4963979;28;4221;-59
2022/06/08 00:28:06;;;;;;;;;;;;;;;22.83;48.04;100587.00;4962720;28;5237;-58
2022/06/08 00:30:32;;;;;;;;;;;;;;;22.83;47.98;100592.78;4958343;28;4174;-59
2022/06/08 00:32:59;;;;;;;;;;;;;;;22.83;48.08;100592.78;4950960;28;4168;-58
2022/06/08 00:35:26;;;;;;;;;;;;;;;22.83;48.15;100592.78;4946289;28;4671;-58
2022/06/08 00:37:52;;;;;;;;;;;;;;;22.83;48.01;100587.00;4963552;28;4156;-58
2022/06/08 00:40:22;;;;;;;;;;;;;;;22.82;48.02;100582.66;4962445;28;4151;-59
2022/06/08 00:42:49;;;;;;;;;;;;;;;22.81;48.17;100589.81;4974442;28;4030;-57
2022/06/08 00:45:18;;;;;;;;;;;;;;;22.82;48.02;100585.53;4962473;28;4184;-58
2022/06/08 00:47:52;;;;;;;;;;;;;;;22.82;48.05;100591.31;4963554;28;6085;-58
2022/06/08 00:50:20;;;;;;;;;;;;;;;22.81;48.06;100584.06;4975040;28;6212;-58
2022/06/08 00:52:46;;;;;;;;;;;;;;;22.82;48.26;100590.59;4961678;28;4040;-58
2022/06/08 00:55:13;;;;;;;;;;;;;;;22.81;48.26;100584.06;4963758;28;5690;-59
2022/06/08 00:57:40;;;;;;;;;;;;;;;22.82;48.16;100587.69;4959735;28;4065;-58
2022/06/08 01:00:08;;;;;;;;;;;;;;;22.83;48.27;100589.91;4964722;28;5858;-58
2022/06/08 01:02:34;;;;;;;;;;;;;;;22.83;47.99;100575.47;4964232;28;4357;-59
2022/06/08 01:05:21;;;;;;;;;;;;;;;22.80;48.25;100577.53;4958342;28;4246;-59
2022/06/08 01:07:50;;;;;;;;;;;;;;;22.80;48.31;100577.53;4960156;28;4280;-60
2022/06/08 01:10:17;;;;;;;;;;;;;;;22.80;48.31;100571.03;4942113;28;4033;-59
2022/06/08 01:12:44;;;;;;;;;;;;;;;22.77;48.25;100567.34;4953076;28;4120;-59
2022/06/08 01:15:12;;;;;;;;;;;;;;;22.78;48.36;100573.84;4965749;28;4695;-59
2022/06/08 01:17:39;;;;;;;;;;;;;;;22.76;48.36;100571.63;4959526;28;5665;-59
2022/06/08 01:20:06;;;;;;;;;;;;;;;22.77;48.45;100557.97;4966685;28;4598;-58
2022/06/08 01:22:34;;;;;;;;;;;;;;;22.76;48.26;100565.13;4956191;28;4245;-59
2022/06/08 01:25:01;;;;;;;;;;;;;;;22.75;48.37;100558.63;4959557;28;4134;-58
2022/06/08 01:27:39;;;;;;;;;;;;;;;22.74;48.08;100554.25;4957145;28;4284;-59
2022/06/08 01:30:12;;;;;;;;;;;;;;;22.75;48.41;100557.91;4954843;28;4175;-58
2022/06/08 01:32:55;;;;;;;;;;;;;;;22.75;48.45;100555.00;4957357;28;4158;-59
2022/06/08 01:35:33;;;;;;;;;;;;;;;22.76;48.29;100565.13;4956006;28;5501;-58
2022/06/08 01:37:59;;;;;;;;;;;;;;;22.75;48.07;100552.84;4944322;28;4542;-58
2022/06/08 01:40:38;;;;;;;;;;;;;;;22.76;48.39;100547.81;4957694;28;4187;-58
2022/06/08 01:43:12;;;;;;;;;;;;;;;22.76;48.40;100547.81;4941174;28;4179;-58
2022/06/08 01:45:57;;;;;;;;;;;;;;;22.75;48.18;100549.25;4952614;28;4765;-59
2022/06/08 01:48:26;;;;;;;;;;;;;;;22.75;48.46;100546.34;4948325;28;4690;-59
2022/06/08 01:50:55;;;;;;;;;;;;;;;22.76;48.35;100544.94;4929819;28;4232;-58
2022/06/08 01:53:21;;;;;;;;;;;;;;;22.74;48.49;100547.75;4956281;28;4568;-59
2022/06/08 01:55:50;;;;;;;;;;;;;;;22.75;48.52;100549.25;4963508;28;4100;-59
2022/06/08 01:58:28;;;;;;;;;;;;;;;22.74;48.56;100544.84;4963864;28;5608;-59
2022/06/08 02:00:58;;;;;;;;;;;;;;;22.74;48.50;100545.59;4958870;28;4584;-59
2022/06/08 02:03:28;;;;;;;;;;;;;;;22.73;48.53;100537.63;4960809;28;4657;-59
2022/06/08 02:06:24;;;;;;;;;;;;;;;22.74;48.60;100544.84;4954279;28;4552;-59
2022/06/08 02:08:56;;;;;;;;;;;;;;;22.73;48.54;100544.13;4943593;28;5635;-59
2022/06/08 02:11:27;;;;;;;;;;;;;;;22.73;48.56;100549.16;4940895;28;4061;-59
2022/06/08 02:13:55;;;;;;;;;;;;;;;22.72;48.66;100542.66;4949952;28;4687;-59
2022/06/08 02:16:38;;;;;;;;;;;;;;;22.73;48.58;100546.28;4957445;28;4444;-59
2022/06/08 02:19:11;;;;;;;;;;;;;;;22.72;48.39;100536.13;4941757;28;4930;-58
2022/06/08 02:21:45;;;;;;;;;;;;;;;22.72;48.61;100547.69;4958965;28;4606;-58
2022/06/08 02:24:13;;;;;;;;;;;;;;;22.71;48.37;100546.94;4958107;28;4599;-59
2022/06/08 02:26:41;;;;;;;;;;;;;;;22.70;48.71;100545.47;4942913;28;5725;-58
2022/06/08 02:29:10;;;;;;;;;;;;;;;22.69;48.50;100544.00;4980477;28;5647;-58
2022/06/08 02:31:38;;;;;;;;;;;;;;;22.71;48.51;100549.09;4958811;28;4312;-59
2022/06/08 02:34:29;;;;;;;;;;;;;;;22.71;48.38;100552.00;4953596;28;4927;-58
2022/06/08 02:37:03;;;;;;;;;;;;;;;22.70;48.31;100544.72;4956546;28;5658;-59
2022/06/08 02:39:30;;;;;;;;;;;;;;;22.70;48.78;100553.38;4957892;28;5699;-58
2022/06/08 02:41:58;;;;;;;;;;;;;;;22.69;48.70;100558.44;4957846;28;5470;-58
2022/06/08 02:44:25;;;;;;;;;;;;;;;22.69;48.47;100554.81;4976384;28;5518;-58
2022/06/08 02:46:54;;;;;;;;;;;;;;;22.70;48.79;100556.28;4932905;28;4544;-58
2022/06/08 02:49:26;;;;;;;;;;;;;;;22.69;48.64;100554.81;4957106;28;4065;-58
2022/06/08 02:51:55;;;;;;;;;;;;;;;22.69;48.76;100563.47;4957636;28;4061;-58
2022/06/08 02:54:23;;;;;;;;;;;;;;;22.70;48.62;100559.16;4949710;28;4838;-59
2022/06/08 02:56:56;;;;;;;;;;;;;;;22.69;48.68;100557.69;4945003;28;5248;-59
2022/06/08 02:59:41;;;;;;;;;;;;;;;22.67;48.68;100551.84;4968614;28;4242;-59
2022/06/08 03:02:11;;;;;;;;;;;;;;;22.67;48.68;100546.81;4957674;28;4154;-58
2022/06/08 03:04:44;;;;;;;;;;;;;;;22.68;48.35;100541.81;4944439;28;4235;-58
2022/06/08 03:07:14;;;;;;;;;;;;;;;22.67;48.75;100534.53;4941822;28;4817;-58
2022/06/08 03:09:41;;;;;;;;;;;;;;;22.66;48.52;100539.56;4943329;28;5155;-59
2022/06/08 03:12:10;;;;;;;;;;;;;;;22.66;48.50;100541.72;4950270;28;4207;-59
2022/06/08 03:14:37;;;;;;;;;;;;;;;22.65;48.79;100543.13;4944713;28;4251;-58
2022/06/08 03:17:04;;;;;;;;;;;;;;;22.66;48.83;100541.72;4923920;28;4550;-58
2022/06/08 03:19:31;;;;;;;;;;;;;;;22.65;48.83;100532.31;4952041;28;4084;-58
2022/06/08 03:21:59;;;;;;;;;;;;;;;22.65;48.81;100543.13;4940830;28;4573;-58
2022/06/08 03:24:27;;;;;;;;;;;;;;;22.66;48.90;100535.97;4952618;28;4057;-59
2022/06/08 03:26:56;;;;;;;;;;;;;;;22.65;48.58;100531.59;4941218;28;4145;-58
2022/06/08 03:29:24;;;;;;;;;;;;;;;22.65;48.85;100534.47;4966956;28;6653;-58
2022/06/08 03:31:51;;;;;;;;;;;;;;;22.65;48.76;100537.34;4945357;28;5608;-59
2022/06/08 03:34:17;;;;;;;;;;;;;;;22.64;48.76;100541.66;4946665;28;5274;-59
2022/06/08 03:36:45;;;;;;;;;;;;;;;22.64;48.77;100538.78;4951281;28;5494;-59
2022/06/08 03:39:13;;;;;;;;;;;;;;;22.64;48.52;100541.66;4943847;28;5785;-58
2022/06/08 03:41:39;;;;;;;;;;;;;;;22.63;48.77;100540.19;4939311;28;5675;-58
2022/06/08 03:44:05;;;;;;;;;;;;;;;22.63;48.89;100534.41;4944930;28;4106;-59
2022/06/08 03:46:34;;;;;;;;;;;;;;;22.63;48.67;100532.28;4944372;28;4107;-58
2022/06/08 03:49:00;;;;;;;;;;;;;;;22.63;48.90;100540.19;4950792;28;4651;-58
2022/06/08 03:51:26;;;;;;;;;;;;;;;22.62;49.00;100527.91;4948755;28;5651;-58
2022/06/08 03:53:58;;;;;;;;;;;;;;;22.63;48.89;100537.28;4962387;28;4599;-59
2022/06/08 03:56:24;;;;;;;;;;;;;;;22.63;48.97;100534.41;4949455;28;4722;-58
2022/06/08 03:58:52;;;;;;;;;;;;;;;22.62;49.02;100541.59;4950135;28;4544;-59
2022/06/08 04:01:20;;;;;;;;;;;;;;;22.62;48.75;100547.38;4948999;28;4142;-59
2022/06/08 04:03:52;;;;;;;;;;;;;;;22.62;49.00;100544.47;4971040;28;5697;-59
2022/06/08 04:06:20;;;;;;;;;;;;;;;22.62;48.73;100544.47;4941335;28;5665;-58
2022/06/08 04:08:47;;;;;;;;;;;;;;;22.63;49.09;100540.19;4943507;28;5652;-58
2022/06/08 04:11:14;;;;;;;;;;;;;;;22.62;48.83;100532.94;4957946;28;6722;-59
2022/06/08 04:13:41;;;;;;;;;;;;;;;22.61;48.86;100532.22;4949536;28;4195;-59
2022/06/08 04:16:15;;;;;;;;;;;;;;;22.62;49.05;100541.59;4957584;28;5391;-58
2022/06/08 04:18:43;;;;;;;;;;;;;;;22.61;49.14;100532.22;4959634;28;4790;-59
2022/06/08 04:21:11;;;;;;;;;;;;;;;22.62;49.12;100527.16;4958693;28;4070;-58
2022/06/08 04:23:45;;;;;;;;;;;;;;;22.60;49.12;100530.72;4929273;28;4999;-59
2022/06/08 04:26:14;;;;;;;;;;;;;;;22.61;48.93;100534.34;4951300;28;4196;-58
2022/06/08 04:28:41;;;;;;;;;;;;;;;22.61;49.14;100531.44;4950370;28;5227;-60
2022/06/08 04:31:13;;;;;;;;;;;;;;;22.61;48.84;100531.44;4949368;28;4592;-59
2022/06/08 04:33:42;;;;;;;;;;;;;;;22.61;48.89;100532.22;4951494;28;5832;-60
2022/06/08 04:36:13;;;;;;;;;;;;;;;22.60;49.03;100539.38;4947419;28;5624;-59
2022/06/08 04:38:40;;;;;;;;;;;;;;;22.59;49.12;100530.00;4946784;28;5287;-59
2022/06/08 04:41:07;;;;;;;;;;;;;;;22.59;49.12;100532.13;4939945;28;4167;-63
2022/06/08 04:43:35;;;;;;;;;;;;;;;22.59;49.16;100535.75;4944769;28;5205;-59
2022/06/08 04:46:02;;;;;;;;;;;;;;;22.61;49.75;100532.22;4942075;28;4594;-62
2022/06/08 04:48:31;;;;;;;;;;;;;;;22.59;49.05;100530.00;4961317;28;5352;-61
2022/06/08 04:50:57;;;;;;;;;;;;;;;22.58;48.81;100528.50;4973272;28;4237;-64
2022/06/08 04:53:24;;;;;;;;;;;;;;;22.48;49.13;100531.06;4956934;28;5510;-65
2022/06/08 04:55:50;;;;;;;;;;;;;;;22.41;49.09;100532.28;4955165;28;6700;-61
2022/06/08 04:58:20;;;;;;;;;;;;;;;22.38;49.16;100527.88;4973838;28;5358;-66
2022/06/08 05:00:47;;;;;;;;;;;;;;;22.43;49.04;100540.28;4963607;28;4821;-67
2022/06/08 05:03:13;;;;;;;;;;;;;;;22.45;48.90;100535.31;4960865;28;4121;-67
2022/06/08 05:05:40;;;;;;;;;;;;;;;22.47;48.94;100541.16;4965169;28;4677;-66
2022/06/08 05:08:11;;;;;;;;;;;;;;;22.49;48.78;100538.31;4981822;28;4140;-66
2022/06/08 05:10:41;;;;;;;;;;;;;;;22.50;49.00;100539.06;4967610;28;4060;-66
2022/06/08 05:13:11;;;;;;;;;;;;;;;22.50;49.11;100539.78;4962019;28;4147;-66
2022/06/08 05:15:39;;;;;;;;;;;;;;;22.51;49.23;100535.47;4966348;28;4694;-66
2022/06/08 05:18:07;;;;;;;;;;;;;;;22.51;49.44;100538.38;4970655;28;4597;-66
2022/06/08 05:20:34;;;;;;;;;;;;;;;22.51;49.18;100528.97;4967733;28;4166;-66
2022/06/08 05:23:01;;;;;;;;;;;;;;;22.51;49.59;100521.06;4966423;28;4238;-66
2022/06/08 05:25:29;;;;;;;;;;;;;;;22.51;49.31;100529.72;4983954;28;3969;-66
2022/06/08 05:27:55;;;;;;;;;;;;;;;22.51;49.67;100523.94;4963580;28;5295;-66
2022/06/08 05:30:23;;;;;;;;;;;;;;;22.50;49.41;100522.47;4966898;28;5843;-66
2022/06/08 05:32:49;;;;;;;;;;;;;;;22.51;49.68;100523.22;4968436;28;4650;-66
2022/06/08 05:35:17;;;;;;;;;;;;;;;22.50;49.74;100522.47;4966233;28;4886;-66
2022/06/08 05:37:43;;;;;;;;;;;;;;;22.51;49.47;100521.06;4968381;28;4044;-66
2022/06/08 05:40:10;;;;;;;;;;;;;;;22.51;49.52;100526.81;4965532;28;5625;-66
2022/06/08 05:42:38;;;;;;;;;;;;;;;22.50;49.63;100528.25;4960502;28;4821;-66
2022/06/08 05:45:05;;;;;;;;;;;;;;;22.51;50.00;100520.31;4968299;28;4291;-66
2022/06/08 05:47:31;;;;;;;;;;;;;;;22.51;49.51;100523.94;4968028;28;4206;-66
2022/06/08 05:49:58;;;;;;;;;;;;;;;22.51;49.87;100523.94;4959823;28;4520;-66
2022/06/08 05:52:26;;;;;;;;;;;;;;;22.51;49.83;100523.94;4984233;28;4134;-66
2022/06/08 05:54:52;;;;;;;;;;;;;;;22.51;49.86;100526.81;4964987;28;4632;-65
2022/06/08 05:57:19;;;;;;;;;;;;;;;22.51;49.78;100523.94;4965536;28;5954;-66
2022/06/08 05:59:45;;;;;;;;;;;;;;;22.51;49.68;100535.47;4982163;28;4586;-66
2022/06/08 06:02:13;;;;;;;;;;;;;;;22.51;49.98;100528.97;4966892;28;4409;-66
2022/06/08 06:04:39;;;;;;;;;;;;;;;22.50;49.49;100536.91;4966972;28;4164;-66
2022/06/08 06:07:06;;;;;;;;;;;;;;;22.50;49.88;100536.91;4965506;28;5814;-66
2022/06/08 06:09:34;;;;;;;;;;;;;;;22.51;49.86;100546.28;4966396;28;5173;-66
2022/06/08 06:12:00;;;;;;;;;;;;;;;22.49;49.88;100544.06;4982053;28;5456;-66
2022/06/08 06:14:33;;;;;;;;;;;;;;;22.50;49.73;100539.78;4966799;28;4282;-66
2022/06/08 06:16:59;;;;;;;;;;;;;;;22.50;50.08;100533.28;4962959;28;4571;-66
2022/06/08 06:19:26;;;;;;;;;;;;;;;22.50;49.62;100544.84;4968455;28;4061;-66
2022/06/08 06:22:10;;;;;;;;;;;;;;;22.49;50.13;100538.31;4965475;28;4205;-66
2022/06/08 06:24:51;;;;;;;;;;;;;;;22.50;50.12;100533.28;4963431;28;4606;-66
2022/06/08 06:27:22;;;;;;;;;;;;;;;22.49;50.12;100532.53;4959906;28;4051;-66
2022/06/08 06:30:01;;;;;;;;;;;;;;;22.49;50.06;100537.56;4965024;28;4651;-66
2022/06/08 06:32:47;;;;;;;;;;;;;;;22.48;50.05;100525.28;4965358;28;5136;-66
2022/06/08 06:35:21;;;;;;;;;;;;;;;22.49;49.88;100531.78;4958533;28;5741;-66
2022/06/08 06:37:48;;;;;;;;;;;;;;;22.49;49.94;100528.91;4966533;28;4034;-66
2022/06/08 06:40:15;;;;;;;;;;;;;;;22.48;49.87;100527.44;4959984;28;6479;-66
2022/06/08 06:42:42;;;;;;;;;;;;;;;22.48;50.30;100525.28;4965049;28;4187;-66
2022/06/08 06:45:27;;;;;;;;;;;;;;;22.48;50.10;100531.06;4963346;28;4452;-66
2022/06/08 06:48:00;;;;;;;;;;;;;;;22.48;50.15;100531.06;4959810;28;4588;-66
2022/06/08 06:50:28;;;;;;;;;;;;;;;22.49;50.19;100537.56;4967428;28;5584;-66
2022/06/08 06:52:59;;;;;;;;;;;;;;;22.48;50.18;100525.28;4964496;28;4188;-66
2022/06/08 06:55:36;;;;;;;;;;;;;;;22.47;49.89;100523.84;4958678;28;5374;-66
2022/06/08 06:58:12;;;;;;;;;;;;;;;22.49;50.08;100523.13;4964834;28;4186;-65
2022/06/08 07:00:39;;;;;;;;;;;;;;;22.49;50.07;100526.75;4965822;28;5697;-65
2022/06/08 07:03:08;;;;;;;;;;;;;;;22.49;50.10;100526.75;4965779;28;4218;-66
2022/06/08 07:05:36;;;;;;;;;;;;;;;22.48;49.90;100528.19;4964701;28;4249;-66
2022/06/08 07:08:04;;;;;;;;;;;;;;;22.47;49.99;100532.50;4961575;28;4738;-66
2022/06/08 07:10:30;;;;;;;;;;;;;;;22.47;50.22;100535.38;4965973;28;4158;-66
2022/06/08 07:12:57;;;;;;;;;;;;;;;22.48;50.09;100524.56;4963974;28;4322;-66
2022/06/08 07:15:23;;;;;;;;;;;;;;;22.47;50.28;100532.50;4965583;28;4712;-66
2022/06/08 07:17:51;;;;;;;;;;;;;;;22.48;50.28;100536.09;4963225;28;5572;-66
2022/06/08 07:20:19;;;;;;;;;;;;;;;22.47;50.28;100532.50;4962522;28;4664;-65
2022/06/08 07:22:46;;;;;;;;;;;;;;;22.47;50.03;100523.06;4965442;28;5420;-66
2022/06/08 07:25:13;;;;;;;;;;;;;;;22.46;50.16;100525.22;4964869;28;4660;-66
2022/06/08 07:27:39;;;;;;;;;;;;;;;22.47;50.13;100529.59;4964016;28;5848;-66
2022/06/08 07:30:06;;;;;;;;;;;;;;;22.49;50.23;100537.56;4965467;28;5172;-66
2022/06/08 07:32:33;;;;;;;;;;;;;;;22.47;50.16;100528.84;4963634;28;5624;-66
2022/06/08 07:35:00;;;;;;;;;;;;;;;22.49;50.19;100531.78;4967119;28;4177;-65
2022/06/08 07:37:26;;;;;;;;;;;;;;;22.48;50.18;100522.41;4963900;28;5355;-69
2022/06/08 07:39:52;;;;;;;;;;;;;;;22.50;49.76;100521.75;4964947;28;4228;-64
2022/06/08 07:42:19;;;;;;;;;;;;;;;22.49;50.51;100520.25;4965489;28;5543;-64
2022/06/08 07:44:45;;;;;;;;;;;;;;;22.49;50.50;100514.50;4966076;28;4514;-64
2022/06/08 07:47:11;;;;;;;;;;;;;;;22.49;50.67;100515.22;4966393;28;4577;-64
2022/06/08 07:49:39;;;;;;;;;;;;;;;22.48;50.39;100525.28;4969024;28;4033;-64
2022/06/08 07:52:06;;;;;;;;;;;;;;;22.49;50.61;100521.00;4970471;28;4726;-65
2022/06/08 07:54:33;;;;;;;;;;;;;;;22.49;50.37;100515.22;4971337;28;5678;-64
2022/06/08 07:56:59;;;;;;;;;;;;;;;22.49;50.66;100520.25;4969515;28;5808;-64
2022/06/08 07:59:26;;;;;;;;;;;;;;;22.49;50.56;100521.00;4968809;28;3981;-68
2022/06/08 08:01:53;;;;;;;;;;;;;;;22.46;50.46;100513.69;4969223;28;4102;-66
2022/06/08 08:04:19;;;;;;;;;;;;;;;22.49;50.51;100511.59;4968939;28;4251;-66
2022/06/08 08:06:45;;;;;;;;;;;;;;;22.48;51.01;100513.03;4970554;28;5628;-65
2022/06/08 08:09:18;;;;;;;;;;;;;;;22.47;51.25;100512.28;4970053;28;4149;-66
2022/06/08 08:11:45;;;;;;;;;;;;;;;22.44;50.99;100513.63;4970251;28;5614;-64
2022/06/08 08:14:12;;;;;;;;;;;;;;;22.46;51.57;100507.91;4967436;28;5498;-65
2022/06/08 08:16:39;;;;;;;;;;;;;;;22.43;51.14;100509.28;4971126;28;5216;-66
2022/06/08 08:19:05;;;;;;;;;;;;;;;22.24;52.11;100495.66;4970038;28;5537;-65
2022/06/08 08:21:32;;;;;;;;;;;;;;;22.30;52.43;100510.28;4969216;28;5504;-61
2022/06/08 08:23:59;;;;;;;;;;;;;;;22.21;52.39;100505.63;4969322;28;5466;-63
2022/06/08 08:26:26;;;;;;;;;;;;;;;22.27;51.97;100500.09;4969555;28;5638;-64
2022/06/08 08:28:53;;;;;;;;;;;;;;;22.34;52.04;100493.84;4969611;28;4852;-64
2022/06/08 08:31:20;;;;;;;;;;;;;;;22.39;52.38;100494.72;4970527;28;4161;-64
2022/06/08 08:33:46;;;;;;;;;;;;;;;22.28;52.30;100490.75;4969370;28;5657;-64
2022/06/08 08:36:13;;;;;;;;;;;;;;;22.39;52.27;100483.16;4970271;28;5244;-64
2022/06/08 08:38:40;;;;;;;;;;;;;;;22.43;52.02;100491.97;4970643;28;4147;-64
2022/06/08 08:42:20;;;;;;;;;;;;;;;22.47;51.77;100482.69;4969134;28;4155;-64
2022/06/08 08:43:55;;;;;;;;;;;;;;;22.50;51.98;100481.34;4963510;28;4255;-64
2022/06/08 08:46:25;;;;;;;;;;;;;;;22.44;51.83;100489.81;4966895;28;4198;-64
2022/06/08 08:48:52;;;;;;;;;;;;;;;22.50;51.90;100487.13;4969399;28;5491;-64
2022/06/08 08:51:25;;;;;;;;;;;;;;;22.51;51.61;100477.78;4969368;28;4628;-64
2022/06/08 08:54:03;;;;;;;;;;;;;;;22.53;51.93;100482.88;4969176;28;4263;-64
2022/06/08 08:56:37;;;;;;;;;;;;;;;22.44;51.95;100476.13;4983897;28;5682;-64
2022/06/08 08:59:18;;;;;;;;;;;;;;;22.51;51.95;100469.13;4970059;28;4173;-64
2022/06/08 09:01:45;;;;;;;;;;;;;;;22.53;51.64;100472.06;4967494;28;4162;-64
2022/06/08 09:04:22;;;;;;;;;;;;;;;22.43;51.68;100477.53;4969840;28;4529;-64
2022/06/08 09:06:49;;;;;;;;;;;;;;;22.38;51.85;100462.25;4961403;28;4124;-63
2022/06/08 09:09:18;;;;;;;;;;;;;;;22.38;52.06;100465.13;4970313;28;4684;-63
2022/06/08 09:11:44;;;;;;;;;;;;;;;22.46;51.90;100469.69;4970218;28;4197;-63
2022/06/08 09:14:51;;;;;;;;;;;;;;;22.50;52.01;100464.03;4962887;28;4626;-64
2022/06/08 09:17:18;;;;;;;;;;;;;;;22.52;51.94;100453.28;4969517;28;4638;-63
2022/06/08 09:19:48;;;;;;;;;;;;;;;22.54;51.97;100455.50;4969760;28;4072;-64
2022/06/08 09:22:18;;;;;;;;;;;;;;;22.54;51.71;100453.38;4969684;28;4188;-63
2022/06/08 09:24:55;;;;;;;;;;;;;;;22.53;51.54;100460.53;4969923;28;5489;-64
2022/06/08 09:27:38;;;;;;;;;;;;;;;22.55;51.98;100460.59;4969870;28;5649;-63
2022/06/08 09:30:04;;;;;;;;;;;;;;;22.46;52.48;100455.97;4959084;28;5448;-63
2022/06/08 09:32:35;;;;;;;;;;;;;;;22.48;51.82;100447.41;4970003;28;5606;-63
2022/06/08 09:35:05;;;;;;;;;;;;;;;22.51;51.85;100448.91;4968968;28;4166;-63
2022/06/08 09:37:32;;;;;;;;;;;;;;;22.54;51.77;100444.72;4970148;28;4119;-63
2022/06/08 09:39:59;;;;;;;;;;;;;;;22.55;52.10;100442.56;4969294;28;4594;-63
2022/06/08 09:42:34;;;;;;;;;;;;;;;22.57;52.19;100434.69;4969461;28;4230;-63
2022/06/08 09:45:12;;;;;;;;;;;;;;;22.62;51.87;100429.78;4962679;28;4181;-63
2022/06/08 09:53:18;;;;;;;;;;;;;;;22.64;51.44;100412.53;4962971;28;5585;-63
2022/06/08 09:55:44;;;;;;;;;;;;;;;22.66;51.32;100414.75;4969450;28;4345;-63
2022/06/08 09:58:11;;;;;;;;;;;;;;;22.66;51.26;100411.88;4963811;28;5756;-63
2022/06/08 10:00:44;;;;;;;;;;;;;;;22.69;51.41;100410.50;4965459;28;4725;-64
2022/06/08 10:03:13;;;;;;;;;;;;;;;22.70;51.28;100406.19;4967408;28;5649;-65
2022/06/08 10:05:59;;;;;;;;;;;;;;;22.66;50.39;100403.94;4969954;28;5611;-65
2022/06/08 10:08:27;;;;;;;;;;;;;;;22.69;50.83;100401.84;4948026;28;4688;-65
2022/06/08 10:11:34;;;;;;;;;;;;;;;22.69;50.94;100393.19;4960300;28;5649;-62
2022/06/08 10:14:21;;;;;;;;;;;;;;;22.69;51.06;100398.97;4967700;28;4553;-62
2022/06/08 10:16:49;;;;;;;;;;;;;;;22.66;50.90;100389.50;4968392;28;5568;-62
2022/06/08 10:19:18;;;;;;;;;;;;;;;22.66;51.24;100394.53;4961276;28;4155;-62
2022/06/08 10:21:45;;;;;;;;;;;;;;;22.67;50.96;100396.75;4967037;28;4616;-62
2022/06/08 10:24:12;;;;;;;;;;;;;;;22.65;50.92;100388.00;4967924;28;5347;-60
2022/06/08 10:26:39;;;;;;;;;;;;;;;22.66;50.92;100394.53;4966050;28;4072;-68
2022/06/08 10:29:19;;;;;;;;;;;;;;;22.66;51.29;100400.31;4967909;28;4629;-67
2022/06/08 10:31:49;;;;;;;;;;;;;;;22.65;51.25;100393.06;4960533;28;5263;-62
2022/06/08 10:34:17;;;;;;;;;;;;;;;22.65;50.89;100404.59;4965107;28;4056;-62
2022/06/08 10:36:51;;;;;;;;;;;;;;;22.65;51.20;100393.78;4979870;28;5705;-62
2022/06/08 10:39:18;;;;;;;;;;;;;;;22.65;51.43;100387.28;4969131;28;4128;-62
2022/06/08 10:44:50;;;;;;;;;;;;;;;22.66;51.25;100385.88;4961883;28;5704;-64
2022/06/08 10:47:21;;;;;;;;;;;;;;;22.65;51.41;100376.47;4968400;28;4582;-62
2022/06/08 10:49:49;;;;;;;;;;;;;;;22.67;51.18;100382.31;4967589;28;5517;-62
2022/06/08 10:52:25;;;;;;;;;;;;;;;22.67;51.28;100375.81;4966655;28;5545;-62
2022/06/08 10:54:55;;;;;;;;;;;;;;;22.67;51.57;100379.41;4959423;28;5534;-61
2022/06/08 10:57:39;;;;;;;;;;;;;;;22.68;51.51;100377.28;4962411;28;5632;-62
2022/06/08 11:00:14;;;;;;;;;;;;;;;22.67;51.34;100356.34;4967653;28;4250;-62
2022/06/08 11:02:40;;;;;;;;;;;;;;;22.67;51.45;100361.38;4966017;28;4672;-62
2022/06/08 11:05:07;;;;;;;;;;;;;;;22.68;51.56;100371.53;4965331;28;5701;-62
2022/06/08 11:07:53;;;;;;;;;;;;;;;22.67;51.20;100373.66;4965165;28;5326;-61
2022/06/08 11:10:23;;;;;;;;;;;;;;;22.68;51.33;100362.88;4966653;28;4200;-60
2022/06/08 11:12:51;;;;;;;;;;;;;;;22.68;51.49;100365.75;4966476;28;4072;-67
2022/06/08 11:15:29;;;;;;;;;;;;;;;22.69;51.38;100358.56;4964841;28;4632;-63
2022/06/08 11:17:58;;;;;;;;;;;;;;;22.71;51.20;100367.28;4964911;28;4556;-60
2022/06/08 11:20:33;;;;;;;;;;;;;;;22.70;51.11;100357.88;4964578;28;4606;-62
2022/06/08 11:23:18;;;;;;;;;;;;;;;22.69;51.56;100352.78;4966208;28;4245;-60
2022/06/08 11:25:46;;;;;;;;;;;;;;;22.70;51.66;100349.22;4968589;28;4152;-61
2022/06/08 11:28:31;;;;;;;;;;;;;;;22.72;52.20;100345.63;4965310;28;4227;-61
2022/06/08 11:30:59;;;;;;;;;;;;;;;22.72;53.11;100352.16;4966784;28;4174;-60
2022/06/08 11:33:45;;;;;;;;;;;;;;;22.73;54.15;100352.91;4964246;28;4648;-62
2022/06/08 11:36:14;;;;;;;;;;;;;;;22.72;54.71;100346.41;4967289;28;4207;-60
2022/06/08 11:38:51;;;;;;;;;;;;;;;22.73;54.96;100342.09;4967933;28;4602;-61
2022/06/08 11:41:20;;;;;;;;;;;;;;;22.77;55.63;100335.69;4966940;28;5649;-61
2022/06/08 11:43:52;;;;;;;;;;;;;;;22.76;56.11;100334.22;4967366;28;4618;-60
2022/06/08 11:46:27;;;;;;;;;;;;;;;22.79;56.17;100332.84;4966644;28;4111;-62
2022/06/08 11:48:54;;;;;;;;;;;;;;;22.77;56.70;100336.44;4958197;28;4794;-60
2022/06/08 11:51:31;;;;;;;;;;;;;;;22.80;57.01;100331.44;4964382;28;4747;-60
2022/06/08 11:53:58;;;;;;;;;;;;;;;22.81;57.17;100324.25;4965124;28;4154;-58
2022/06/08 11:56:42;;;;;;;;;;;;;;;22.86;57.72;100330.88;4957997;28;4254;-60
2022/06/08 11:59:14;;;;;;;;;;;;;;;22.88;57.95;100320.13;4962960;28;4201;-61
2022/06/08 12:01:46;;;;;;;;;;;;;;;22.86;58.15;100320.09;4959351;28;4415;-61
2022/06/08 12:04:14;;;;;;;;;;;;;;;22.86;58.32;100322.97;4966494;28;4629;-64
2022/06/08 12:06:41;;;;;;;;;;;;;;;22.85;57.99;100315.72;4965401;28;4025;-60
2022/06/08 12:09:13;;;;;;;;;;;;;;;22.86;57.80;100313.56;4962210;28;5633;-61
2022/06/08 12:11:39;;;;;;;;;;;;;;;22.86;57.86;100308.53;4963957;28;4423;-62
2022/06/08 12:14:16;;;;;;;;;;;;;;;22.86;57.88;100308.53;4957590;28;5824;-63
2022/06/08 12:16:51;;;;;;;;;;;;;;;22.87;58.26;100309.25;4967312;28;4409;-60
2022/06/08 12:19:20;;;;;;;;;;;;;;;22.87;58.38;100310.00;4965671;28;4211;-61
2022/06/08 12:21:47;;;;;;;;;;;;;;;22.89;57.99;100315.09;4964832;28;4816;-61
2022/06/08 12:24:20;;;;;;;;;;;;;;;22.89;58.03;100303.56;4967192;28;4168;-64
2022/06/08 12:26:55;;;;;;;;;;;;;;;22.93;58.34;100300.75;4965058;28;4284;-63
2022/06/08 12:29:21;;;;;;;;;;;;;;;22.94;58.51;100290.69;4963514;28;4671;-63
2022/06/08 12:31:57;;;;;;;;;;;;;;;22.95;58.16;100295.78;4966620;28;4208;-61
2022/06/08 12:34:32;;;;;;;;;;;;;;;22.97;57.97;100292.94;4966590;28;4187;-63
2022/06/08 12:36:59;;;;;;;;;;;;;;;22.94;57.73;100291.41;4967099;28;4171;-63
2022/06/08 12:39:29;;;;;;;;;;;;;;;22.94;57.35;100299.34;4966784;28;5520;-65
2022/06/08 12:41:55;;;;;;;;;;;;;;;22.96;56.64;100293.63;4967868;28;4417;-65
2022/06/08 12:44:26;;;;;;;;;;;;;;;22.97;56.09;100289.31;4970787;28;5667;-65
2022/06/08 12:46:53;;;;;;;;;;;;;;;22.96;55.79;100293.63;4969581;28;5646;-62
2022/06/08 12:49:20;;;;;;;;;;;;;;;22.96;55.10;100288.59;4970626;28;4229;-64
2022/06/08 12:51:49;;;;;;;;;;;;;;;22.97;54.69;100290.03;4970324;28;5801;-62
2022/06/08 12:54:23;;;;;;;;;;;;;;;22.98;54.19;100291.53;4969850;28;5622;-62
2022/06/08 12:56:51;;;;;;;;;;;;;;;22.97;53.76;100290.03;4968324;28;5233;-65
2022/06/08 12:59:17;;;;;;;;;;;;;;;22.97;53.05;100295.81;4969478;28;5728;-65
2022/06/08 13:01:44;;;;;;;;;;;;;;;22.96;52.81;100288.59;4969042;28;5622;-63
2022/06/08 13:04:19;;;;;;;;;;;;;;;22.97;52.40;100281.38;4970232;28;4204;-64
2022/06/08 13:06:45;;;;;;;;;;;;;;;22.96;52.02;100285.69;4969503;28;4215;-64
2022/06/08 13:09:12;;;;;;;;;;;;;;;22.96;51.94;100284.97;4970939;28;5617;-64
2022/06/08 13:11:39;;;;;;;;;;;;;;;22.97;51.69;100277.78;4966149;28;5763;-65